sensor_id;sensor_type;location;lat;lon;timestamp;P1;durP1;ratioP1;P2;durP2;ratioP2
66581;SDS011;53438;48.898;2.308;2023-05-07T03:01:46;3.10;;;0.90;;
66581;SDS011;53438;48.898;2.308;2023-05-07T03:04:11;3.77;;;1.10;;
66581;SDS011;53438;48.898;2.308;2023-05-07T03:06:37;4.00;;;1.50;;
66581;SDS011;53438;48.898;2.308;2023-05-07T03:09:02;2.63;;;1.03;;
66581;SDS011;53438;48.898;2.308;2023-05-07T03:11:28;3.47;;;1.15;;
66581;SDS011;53438;48.898;2.308;2023-05-07T03:13:53;3.70;;;0.93;;
66581;SDS011;53438;48.898;2.308;2023-05-07T03:16:18;1.47;;;1.03;;
66581;SDS011;53438;48.898;2.308;2023-05-07T03:18:44;3.40;;;1.30;;
66581;SDS011;53438;48.898;2.308;2023-05-07T03:21:09;1.23;;;0.70;;
66581;SDS011;53438;48.898;2.308;2023-05-07T03:23:34;2.00;;;1.30;;
66581;SDS011;53438;48.898;2.308;2023-05-07T03:26:00;2.50;;;1.30;;
66581;SDS011;53438;48.898;2.308;2023-05-07T03:28:25;3.38;;;1.30;;
66581;SDS011;53438;48.898;2.308;2023-05-07T03:30:50;2.13;;;1.13;;
66581;SDS011;53438;48.898;2.308;2023-05-07T03:33:16;3.30;;;1.07;;
66581;SDS011;53438;48.898;2.308;2023-05-07T03:35:41;2.57;;;0.70;;
66581;SDS011;53438;48.898;2.308;2023-05-07T03:38:06;2.90;;;0.90;;
66581;SDS011;53438;48.898;2.308;2023-05-07T03:40:32;2.10;;;1.08;;
66581;SDS011;53438;48.898;2.308;2023-05-07T03:42:58;1.50;;;0.53;;
66581;SDS011;53438;48.898;2.308;2023-05-07T03:45:24;3.38;;;0.65;;
66581;SDS011;53438;48.898;2.308;2023-05-07T03:47:50;1.47;;;0.63;;
66581;SDS011;53438;48.898;2.308;2023-05-07T03:50:16;1.70;;;0.80;;
66581;SDS011;53438;48.898;2.308;2023-05-07T03:52:41;2.55;;;0.80;;
66581;SDS011;53438;48.898;2.308;2023-05-07T03:55:06;1.70;;;0.73;;
66581;SDS011;53438;48.898;2.308;2023-05-07T03:57:32;2.93;;;0.83;;
66581;SDS011;53438;48.898;2.308;2023-05-07T03:59:58;3.03;;;1.02;;
66581;SDS011;53438;48.898;2.308;2023-05-07T04:02:23;2.05;;;0.88;;
66581;SDS011;53438;48.898;2.308;2023-05-07T04:04:48;3.10;;;1.07;;
66581;SDS011;53438;48.898;2.308;2023-05-07T04:07:14;2.83;;;0.70;;
66581;SDS011;53438;48.898;2.308;2023-05-07T04:09:40;0.80;;;0.50;;
66581;SDS011;53438;48.898;2.308;2023-05-07T04:12:05;3.10;;;0.70;;
66581;SDS011;53438;48.898;2.308;2023-05-07T04:14:31;1.87;;;0.73;;
66581;SDS011;53438;48.898;2.308;2023-05-07T04:16:57;1.60;;;0.55;;
66581;SDS011;53438;48.898;2.308;2023-05-07T04:19:25;2.25;;;0.90;;
66581;SDS011;53438;48.898;2.308;2023-05-07T04:21:50;2.10;;;0.70;;
66581;SDS011;53438;48.898;2.308;2023-05-07T04:24:16;2.33;;;0.73;;
66581;SDS011;53438;48.898;2.308;2023-05-07T04:26:41;1.53;;;0.57;;
66581;SDS011;53438;48.898;2.308;2023-05-07T04:29:06;1.83;;;0.90;;
66581;SDS011;53438;48.898;2.308;2023-05-07T04:31:32;2.23;;;0.67;;
66581;SDS011;53438;48.898;2.308;2023-05-07T04:33:57;1.95;;;0.60;;
66581;SDS011;53438;48.898;2.308;2023-05-07T04:36:23;1.23;;;0.45;;
66581;SDS011;53438;48.898;2.308;2023-05-07T04:38:52;4.23;;;0.60;;
66581;SDS011;53438;48.898;2.308;2023-05-07T04:41:18;2.85;;;0.60;;
66581;SDS011;53438;48.898;2.308;2023-05-07T04:43:43;1.20;;;0.47;;
66581;SDS011;53438;48.898;2.308;2023-05-07T04:46:08;1.97;;;0.80;;
66581;SDS011;53438;48.898;2.308;2023-05-07T04:48:34;2.97;;;0.60;;
66581;SDS011;53438;48.898;2.308;2023-05-07T04:50:59;0.93;;;0.50;;
66581;SDS011;53438;48.898;2.308;2023-05-07T04:53:25;1.90;;;0.53;;
66581;SDS011;53438;48.898;2.308;2023-05-07T04:55:54;1.30;;;0.30;;
66581;SDS011;53438;48.898;2.308;2023-05-07T04:58:21;1.08;;;0.40;;
66581;SDS011;53438;48.898;2.308;2023-05-07T05:00:47;2.05;;;0.70;;
66581;SDS011;53438;48.898;2.308;2023-05-07T05:03:12;2.17;;;0.70;;
66581;SDS011;53438;48.898;2.308;2023-05-07T05:05:38;2.47;;;0.80;;
66581;SDS011;53438;48.898;2.308;2023-05-07T05:08:03;1.43;;;0.80;;
66581;SDS011;53438;48.898;2.308;2023-05-07T05:10:28;1.97;;;0.77;;
66581;SDS011;53438;48.898;2.308;2023-05-07T05:12:54;3.77;;;0.80;;
66581;SDS011;53438;48.898;2.308;2023-05-07T05:15:19;2.80;;;0.83;;
66581;SDS011;53438;48.898;2.308;2023-05-07T05:17:45;1.27;;;0.90;;
66581;SDS011;53438;48.898;2.308;2023-05-07T05:20:10;3.72;;;0.73;;
66581;SDS011;53438;48.898;2.308;2023-05-07T05:22:36;2.40;;;0.80;;
66581;SDS011;53438;48.898;2.308;2023-05-07T05:25:02;4.38;;;0.65;;
66581;SDS011;53438;48.898;2.308;2023-05-07T05:27:28;3.27;;;0.93;;
66581;SDS011;53438;48.898;2.308;2023-05-07T05:29:53;3.90;;;0.70;;
66581;SDS011;53438;48.898;2.308;2023-05-07T05:32:19;1.97;;;0.63;;
66581;SDS011;53438;48.898;2.308;2023-05-07T05:34:44;3.87;;;0.87;;
66581;SDS011;53438;48.898;2.308;2023-05-07T05:37:10;2.33;;;0.80;;
66581;SDS011;53438;48.898;2.308;2023-05-07T05:39:35;2.93;;;0.73;;
66581;SDS011;53438;48.898;2.308;2023-05-07T05:42:01;3.53;;;0.80;;
66581;SDS011;53438;48.898;2.308;2023-05-07T05:44:26;1.92;;;0.68;;
66581;SDS011;53438;48.898;2.308;2023-05-07T05:46:52;2.40;;;0.90;;
66581;SDS011;53438;48.898;2.308;2023-05-07T05:49:20;2.90;;;0.90;;
66581;SDS011;53438;48.898;2.308;2023-05-07T05:51:45;2.20;;;0.93;;
66581;SDS011;53438;48.898;2.308;2023-05-07T05:54:10;4.83;;;1.33;;
66581;SDS011;53438;48.898;2.308;2023-05-07T05:56:36;7.23;;;1.40;;
66581;SDS011;53438;48.898;2.308;2023-05-07T05:59:02;4.03;;;1.40;;
66581;SDS011;53438;48.898;2.308;2023-05-07T06:01:27;2.60;;;1.00;;
66581;SDS011;53438;48.898;2.308;2023-05-07T06:03:53;2.30;;;0.60;;
66581;SDS011;53438;48.898;2.308;2023-05-07T06:06:18;4.07;;;0.90;;
66581;SDS011;53438;48.898;2.308;2023-05-07T06:08:43;2.13;;;0.60;;
66581;SDS011;53438;48.898;2.308;2023-05-07T06:11:09;3.30;;;0.87;;
66581;SDS011;53438;48.898;2.308;2023-05-07T06:13:34;2.23;;;0.77;;
66581;SDS011;53438;48.898;2.308;2023-05-07T06:15:59;3.17;;;0.67;;
66581;SDS011;53438;48.898;2.308;2023-05-07T06:18:25;1.20;;;0.60;;
66581;SDS011;53438;48.898;2.308;2023-05-07T06:20:51;2.30;;;0.60;;
66581;SDS011;53438;48.898;2.308;2023-05-07T06:23:17;2.95;;;0.60;;
66581;SDS011;53438;48.898;2.308;2023-05-07T06:25:45;1.17;;;0.53;;
66581;SDS011;53438;48.898;2.308;2023-05-07T06:28:13;1.75;;;0.88;;
66581;SDS011;53438;48.898;2.308;2023-05-07T06:30:38;1.57;;;0.70;;
66581;SDS011;53438;48.898;2.308;2023-05-07T06:33:05;1.15;;;0.55;;
66581;SDS011;53438;48.898;2.308;2023-05-07T06:35:30;1.77;;;0.60;;
66581;SDS011;53438;48.898;2.308;2023-05-07T06:37:55;2.20;;;0.90;;
66581;SDS011;53438;48.898;2.308;2023-05-07T06:40:21;2.30;;;1.00;;
66581;SDS011;53438;48.898;2.308;2023-05-07T06:42:46;1.55;;;0.70;;
66581;SDS011;53438;48.898;2.308;2023-05-07T06:45:11;2.63;;;0.80;;
66581;SDS011;53438;48.898;2.308;2023-05-07T06:47:37;1.80;;;0.60;;
66581;SDS011;53438;48.898;2.308;2023-05-07T06:50:02;2.07;;;0.77;;
66581;SDS011;53438;48.898;2.308;2023-05-07T06:52:28;1.40;;;0.73;;
66581;SDS011;53438;48.898;2.308;2023-05-07T06:54:53;1.47;;;0.60;;
66581;SDS011;53438;48.898;2.308;2023-05-07T06:57:18;3.33;;;1.00;;
66581;SDS011;53438;48.898;2.308;2023-05-07T06:59:43;2.60;;;1.33;;
66581;SDS011;53438;48.898;2.308;2023-05-07T07:02:09;1.80;;;0.80;;
66581;SDS011;53438;48.898;2.308;2023-05-07T07:04:34;3.30;;;1.03;;
66581;SDS011;53438;48.898;2.308;2023-05-07T07:07:00;2.07;;;0.90;;
66581;SDS011;53438;48.898;2.308;2023-05-07T07:09:25;2.37;;;1.00;;
66581;SDS011;53438;48.898;2.308;2023-05-07T07:11:50;2.30;;;0.80;;
66581;SDS011;53438;48.898;2.308;2023-05-07T07:14:16;1.93;;;0.90;;
66581;SDS011;53438;48.898;2.308;2023-05-07T07:16:41;1.33;;;0.73;;
66581;SDS011;53438;48.898;2.308;2023-05-07T07:19:06;1.27;;;0.77;;
66581;SDS011;53438;48.898;2.308;2023-05-07T07:21:32;2.15;;;0.82;;
66581;SDS011;53438;48.898;2.308;2023-05-07T07:23:57;2.63;;;0.97;;
66581;SDS011;53438;48.898;2.308;2023-05-07T07:26:22;3.83;;;1.13;;
66581;SDS011;53438;48.898;2.308;2023-05-07T07:28:48;2.47;;;0.90;;
66581;SDS011;53438;48.898;2.308;2023-05-07T07:31:13;1.93;;;0.97;;
66581;SDS011;53438;48.898;2.308;2023-05-07T07:33:38;6.53;;;1.83;;
66581;SDS011;53438;48.898;2.308;2023-05-07T07:36:05;2.43;;;1.07;;
66581;SDS011;53438;48.898;2.308;2023-05-07T07:38:30;2.40;;;0.93;;
66581;SDS011;53438;48.898;2.308;2023-05-07T07:40:56;3.37;;;1.00;;
66581;SDS011;53438;48.898;2.308;2023-05-07T07:43:21;1.97;;;0.70;;
66581;SDS011;53438;48.898;2.308;2023-05-07T07:45:46;2.67;;;0.63;;
66581;SDS011;53438;48.898;2.308;2023-05-07T07:48:12;2.97;;;0.93;;
66581;SDS011;53438;48.898;2.308;2023-05-07T07:50:37;2.23;;;1.00;;
66581;SDS011;53438;48.898;2.308;2023-05-07T07:53:03;1.60;;;0.97;;
66581;SDS011;53438;48.898;2.308;2023-05-07T07:55:28;2.28;;;1.10;;
66581;SDS011;53438;48.898;2.308;2023-05-07T07:57:54;2.90;;;1.13;;
66581;SDS011;53438;48.898;2.308;2023-05-07T08:00:21;2.93;;;1.07;;
66581;SDS011;53438;48.898;2.308;2023-05-07T08:02:46;3.50;;;1.60;;
66581;SDS011;53438;48.898;2.308;2023-05-07T08:05:12;3.63;;;1.20;;
66581;SDS011;53438;48.898;2.308;2023-05-07T08:07:37;1.70;;;1.27;;
66581;SDS011;53438;48.898;2.308;2023-05-07T08:10:02;1.30;;;0.90;;
66581;SDS011;53438;48.898;2.308;2023-05-07T08:12:29;7.75;;;1.60;;
66581;SDS011;53438;48.898;2.308;2023-05-07T08:14:54;2.30;;;1.10;;
66581;SDS011;53438;48.898;2.308;2023-05-07T08:17:20;1.70;;;1.13;;
66581;SDS011;53438;48.898;2.308;2023-05-07T08:19:47;2.38;;;1.33;;
66581;SDS011;53438;48.898;2.308;2023-05-07T08:22:13;6.25;;;1.27;;
66581;SDS011;53438;48.898;2.308;2023-05-07T08:24:38;3.13;;;1.08;;
66581;SDS011;53438;48.898;2.308;2023-05-07T08:27:04;2.87;;;1.37;;
66581;SDS011;53438;48.898;2.308;2023-05-07T08:29:29;3.40;;;1.20;;
66581;SDS011;53438;48.898;2.308;2023-05-07T08:31:55;4.63;;;1.70;;
66581;SDS011;53438;48.898;2.308;2023-05-07T08:34:21;2.75;;;1.08;;
66581;SDS011;53438;48.898;2.308;2023-05-07T08:36:47;1.83;;;0.80;;
66581;SDS011;53438;48.898;2.308;2023-05-07T08:39:13;2.40;;;0.93;;
66581;SDS011;53438;48.898;2.308;2023-05-07T08:41:44;2.00;;;0.95;;
66581;SDS011;53438;48.898;2.308;2023-05-07T08:44:11;1.83;;;0.95;;
66581;SDS011;53438;48.898;2.308;2023-05-07T08:46:39;1.95;;;1.25;;
66581;SDS011;53438;48.898;2.308;2023-05-07T08:49:06;3.30;;;1.10;;
66581;SDS011;53438;48.898;2.308;2023-05-07T08:51:32;3.13;;;1.30;;
66581;SDS011;53438;48.898;2.308;2023-05-07T08:53:58;3.60;;;1.60;;
66581;SDS011;53438;48.898;2.308;2023-05-07T08:56:24;3.40;;;1.20;;
66581;SDS011;53438;48.898;2.308;2023-05-07T08:58:50;2.13;;;1.13;;
66581;SDS011;53438;48.898;2.308;2023-05-07T09:01:16;2.00;;;1.37;;
66581;SDS011;53438;48.898;2.308;2023-05-07T09:03:44;5.50;;;2.85;;
66581;SDS011;53438;48.898;2.308;2023-05-07T09:06:10;3.93;;;1.93;;
66581;SDS011;53438;48.898;2.308;2023-05-07T09:08:36;2.30;;;1.02;;
66581;SDS011;53438;48.898;2.308;2023-05-07T09:11:01;3.40;;;1.30;;
66581;SDS011;53438;48.898;2.308;2023-05-07T09:13:28;2.17;;;1.13;;
66581;SDS011;53438;48.898;2.308;2023-05-07T09:15:53;2.50;;;1.15;;
66581;SDS011;53438;48.898;2.308;2023-05-07T09:18:19;3.37;;;1.90;;
66581;SDS011;53438;48.898;2.308;2023-05-07T09:20:44;3.60;;;1.50;;
66581;SDS011;53438;48.898;2.308;2023-05-07T09:23:10;2.67;;;1.17;;
66581;SDS011;53438;48.898;2.308;2023-05-07T09:25:35;2.38;;;1.30;;
66581;SDS011;53438;48.898;2.308;2023-05-07T09:28:02;2.90;;;1.00;;
66581;SDS011;53438;48.898;2.308;2023-05-07T09:30:29;3.33;;;1.23;;
66581;SDS011;53438;48.898;2.308;2023-05-07T09:32:59;3.10;;;1.58;;
66581;SDS011;53438;48.898;2.308;2023-05-07T09:35:25;3.80;;;2.00;;
66581;SDS011;53438;48.898;2.308;2023-05-07T09:37:54;4.25;;;1.77;;
66581;SDS011;53438;48.898;2.308;2023-05-07T09:40:21;4.00;;;1.93;;
66581;SDS011;53438;48.898;2.308;2023-05-07T09:42:48;4.70;;;2.40;;
66581;SDS011;53438;48.898;2.308;2023-05-07T09:45:15;3.15;;;1.98;;
66581;SDS011;53438;48.898;2.308;2023-05-07T09:47:42;4.05;;;2.30;;
66581;SDS011;53438;48.898;2.308;2023-05-07T09:50:10;2.72;;;1.67;;
66581;SDS011;53438;48.898;2.308;2023-05-07T09:52:38;5.03;;;1.97;;
66581;SDS011;53438;48.898;2.308;2023-05-07T09:55:05;4.38;;;1.95;;
66581;SDS011;53438;48.898;2.308;2023-05-07T09:57:32;3.58;;;2.42;;
66581;SDS011;53438;48.898;2.308;2023-05-07T09:59:58;4.70;;;1.95;;
66581;SDS011;53438;48.898;2.308;2023-05-07T10:02:27;3.20;;;1.80;;
66581;SDS011;53438;48.898;2.308;2023-05-07T10:04:55;2.23;;;1.10;;
66581;SDS011;53438;48.898;2.308;2023-05-07T10:07:21;1.85;;;1.40;;
66581;SDS011;53438;48.898;2.308;2023-05-07T10:09:47;1.98;;;1.52;;
66581;SDS011;53438;48.898;2.308;2023-05-07T10:12:13;2.78;;;1.35;;
66581;SDS011;53438;48.898;2.308;2023-05-07T10:14:38;3.00;;;1.25;;
66581;SDS011;53438;48.898;2.308;2023-05-07T10:17:04;5.05;;;3.50;;
66581;SDS011;53438;48.898;2.308;2023-05-07T10:19:31;3.13;;;1.63;;
66581;SDS011;53438;48.898;2.308;2023-05-07T10:22:01;4.40;;;1.95;;
66581;SDS011;53438;48.898;2.308;2023-05-07T10:24:31;2.97;;;1.30;;
66581;SDS011;53438;48.898;2.308;2023-05-07T10:26:59;19.88;;;1.67;;
66581;SDS011;53438;48.898;2.308;2023-05-07T10:31:55;16.10;;;1.80;;
66581;SDS011;53438;48.898;2.308;2023-05-07T10:34:37;21.93;;;2.17;;
66581;SDS011;53438;48.898;2.308;2023-05-07T10:37:05;9.07;;;1.60;;
66581;SDS011;53438;48.898;2.308;2023-05-07T10:39:31;5.95;;;2.00;;
66581;SDS011;53438;48.898;2.308;2023-05-07T10:41:57;3.03;;;1.47;;
66581;SDS011;53438;48.898;2.308;2023-05-07T10:44:36;6.88;;;1.80;;
66581;SDS011;53438;48.898;2.308;2023-05-07T10:47:12;5.45;;;1.77;;
66581;SDS011;53438;48.898;2.308;2023-05-07T10:54:43;5.05;;;1.88;;
66581;SDS011;53438;48.898;2.308;2023-05-07T11:00:03;16.65;;;2.65;;
66581;SDS011;53438;48.898;2.308;2023-05-07T11:05:23;4.63;;;2.83;;
66581;SDS011;53438;48.898;2.308;2023-05-07T11:07:56;4.70;;;2.80;;
66581;SDS011;53438;48.898;2.308;2023-05-07T11:10:22;4.60;;;2.90;;
66581;SDS011;53438;48.898;2.308;2023-05-07T11:12:48;4.23;;;2.87;;
66581;SDS011;53438;48.898;2.308;2023-05-07T11:15:15;5.55;;;2.60;;
66581;SDS011;53438;48.898;2.308;2023-05-07T11:17:59;4.80;;;2.95;;
66581;SDS011;53438;48.898;2.308;2023-05-07T11:26:04;5.13;;;2.57;;
66581;SDS011;53438;48.898;2.308;2023-05-07T11:28:31;3.00;;;2.33;;
66581;SDS011;53438;48.898;2.308;2023-05-07T11:31:01;22.23;;;3.00;;
66581;SDS011;53438;48.898;2.308;2023-05-07T11:33:27;4.10;;;1.70;;
66581;SDS011;53438;48.898;2.308;2023-05-07T11:35:54;7.93;;;1.98;;
66581;SDS011;53438;48.898;2.308;2023-05-07T11:38:19;7.17;;;2.20;;
66581;SDS011;53438;48.898;2.308;2023-05-07T11:40:51;109.47;;;7.03;;
66581;SDS011;53438;48.898;2.308;2023-05-07T11:43:17;4.82;;;1.73;;
66581;SDS011;53438;48.898;2.308;2023-05-07T11:45:44;12.20;;;2.20;;
66581;SDS011;53438;48.898;2.308;2023-05-07T11:48:10;4.20;;;1.85;;
66581;SDS011;53438;48.898;2.308;2023-05-07T11:50:49;65.40;;;4.65;;
66581;SDS011;53438;48.898;2.308;2023-05-07T11:53:27;16.38;;;2.60;;
66581;SDS011;53438;48.898;2.308;2023-05-07T11:55:55;13.73;;;2.80;;
66581;SDS011;53438;48.898;2.308;2023-05-07T11:58:21;4.20;;;2.53;;
66581;SDS011;53438;48.898;2.308;2023-05-07T12:00:48;10.98;;;3.22;;
66581;SDS011;53438;48.898;2.308;2023-05-07T12:03:14;8.43;;;5.05;;
66581;SDS011;53438;48.898;2.308;2023-05-07T12:05:40;11.53;;;6.23;;
66581;SDS011;53438;48.898;2.308;2023-05-07T12:08:06;19.65;;;11.68;;
66581;SDS011;53438;48.898;2.308;2023-05-07T12:10:32;11.00;;;5.17;;
66581;SDS011;53438;48.898;2.308;2023-05-07T12:12:57;12.57;;;4.87;;
66581;SDS011;53438;48.898;2.308;2023-05-07T12:15:23;5.57;;;3.67;;
66581;SDS011;53438;48.898;2.308;2023-05-07T12:17:48;5.00;;;3.55;;
66581;SDS011;53438;48.898;2.308;2023-05-07T12:20:14;6.63;;;4.80;;
66581;SDS011;53438;48.898;2.308;2023-05-07T12:22:40;5.75;;;4.18;;
66581;SDS011;53438;48.898;2.308;2023-05-07T12:25:06;8.60;;;5.37;;
66581;SDS011;53438;48.898;2.308;2023-05-07T12:27:31;10.82;;;6.75;;
66581;SDS011;53438;48.898;2.308;2023-05-07T12:29:57;11.27;;;4.97;;
66581;SDS011;53438;48.898;2.308;2023-05-07T12:32:24;5.85;;;3.97;;
66581;SDS011;53438;48.898;2.308;2023-05-07T12:34:50;6.93;;;4.23;;
66581;SDS011;53438;48.898;2.308;2023-05-07T12:37:16;9.02;;;4.43;;
66581;SDS011;53438;48.898;2.308;2023-05-07T12:39:46;11.43;;;4.70;;
66581;SDS011;53438;48.898;2.308;2023-05-07T12:42:16;4.97;;;3.47;;
66581;SDS011;53438;48.898;2.308;2023-05-07T12:44:48;8.63;;;4.43;;
66581;SDS011;53438;48.898;2.308;2023-05-07T12:47:14;6.90;;;4.40;;
66581;SDS011;53438;48.898;2.308;2023-05-07T12:49:40;6.70;;;4.05;;
66581;SDS011;53438;48.898;2.308;2023-05-07T12:52:06;8.52;;;4.13;;
66581;SDS011;53438;48.898;2.308;2023-05-07T12:54:32;6.20;;;4.10;;
66581;SDS011;53438;48.898;2.308;2023-05-07T12:57:05;4.93;;;3.65;;
66581;SDS011;53438;48.898;2.308;2023-05-07T12:59:38;10.30;;;6.03;;
66581;SDS011;53438;48.898;2.308;2023-05-07T13:02:06;7.03;;;4.93;;
66581;SDS011;53438;48.898;2.308;2023-05-07T13:04:32;9.43;;;5.43;;
66581;SDS011;53438;48.898;2.308;2023-05-07T13:06:58;6.17;;;4.43;;
66581;SDS011;53438;48.898;2.308;2023-05-07T13:09:24;8.77;;;5.95;;
66581;SDS011;53438;48.898;2.308;2023-05-07T13:11:50;12.73;;;6.63;;
66581;SDS011;53438;48.898;2.308;2023-05-07T13:14:15;7.03;;;4.50;;
66581;SDS011;53438;48.898;2.308;2023-05-07T13:16:40;8.25;;;4.65;;
66581;SDS011;53438;48.898;2.308;2023-05-07T13:19:06;11.70;;;7.45;;
66581;SDS011;53438;48.898;2.308;2023-05-07T13:21:33;8.77;;;6.30;;
66581;SDS011;53438;48.898;2.308;2023-05-07T13:23:58;8.77;;;5.65;;
66581;SDS011;53438;48.898;2.308;2023-05-07T13:26:24;7.43;;;4.73;;
66581;SDS011;53438;48.898;2.308;2023-05-07T13:28:50;8.20;;;3.80;;
66581;SDS011;53438;48.898;2.308;2023-05-07T13:31:16;4.40;;;3.37;;
66581;SDS011;53438;48.898;2.308;2023-05-07T13:33:42;5.03;;;3.00;;
66581;SDS011;53438;48.898;2.308;2023-05-07T13:36:07;9.57;;;5.17;;
66581;SDS011;53438;48.898;2.308;2023-05-07T13:38:33;4.95;;;2.70;;
66581;SDS011;53438;48.898;2.308;2023-05-07T13:40:59;6.43;;;3.87;;
66581;SDS011;53438;48.898;2.308;2023-05-07T13:43:24;4.83;;;3.33;;
66581;SDS011;53438;48.898;2.308;2023-05-07T13:45:50;4.10;;;1.92;;
66581;SDS011;53438;48.898;2.308;2023-05-07T13:48:15;3.20;;;2.43;;
66581;SDS011;53438;48.898;2.308;2023-05-07T13:50:40;5.13;;;2.70;;
66581;SDS011;53438;48.898;2.308;2023-05-07T13:53:07;2.73;;;2.37;;
66581;SDS011;53438;48.898;2.308;2023-05-07T13:55:32;6.00;;;3.95;;
66581;SDS011;53438;48.898;2.308;2023-05-07T13:57:58;11.97;;;7.13;;
66581;SDS011;53438;48.898;2.308;2023-05-07T14:00:26;9.50;;;5.85;;
66581;SDS011;53438;48.898;2.308;2023-05-07T14:02:52;14.05;;;7.65;;
66581;SDS011;53438;48.898;2.308;2023-05-07T14:05:18;9.60;;;4.80;;
66581;SDS011;53438;48.898;2.308;2023-05-07T14:07:43;6.35;;;4.65;;
66581;SDS011;53438;48.898;2.308;2023-05-07T14:10:09;9.45;;;5.90;;
66581;SDS011;53438;48.898;2.308;2023-05-07T14:12:36;6.33;;;4.27;;
66581;SDS011;53438;48.898;2.308;2023-05-07T14:15:01;7.82;;;4.75;;
66581;SDS011;53438;48.898;2.308;2023-05-07T14:17:28;8.30;;;5.10;;
66581;SDS011;53438;48.898;2.308;2023-05-07T14:19:53;9.73;;;6.00;;
66581;SDS011;53438;48.898;2.308;2023-05-07T14:22:20;15.13;;;8.57;;
66581;SDS011;53438;48.898;2.308;2023-05-07T14:24:46;14.85;;;8.98;;
66581;SDS011;53438;48.898;2.308;2023-05-07T14:27:11;13.03;;;9.47;;
66581;SDS011;53438;48.898;2.308;2023-05-07T14:29:36;13.57;;;6.83;;
66581;SDS011;53438;48.898;2.308;2023-05-07T14:32:02;10.85;;;6.75;;
66581;SDS011;53438;48.898;2.308;2023-05-07T14:34:28;10.97;;;7.43;;
66581;SDS011;53438;48.898;2.308;2023-05-07T14:36:54;8.07;;;5.38;;
66581;SDS011;53438;48.898;2.308;2023-05-07T14:39:20;7.07;;;4.72;;
66581;SDS011;53438;48.898;2.308;2023-05-07T14:41:45;10.13;;;6.20;;
66581;SDS011;53438;48.898;2.308;2023-05-07T14:44:11;7.43;;;5.30;;
66581;SDS011;53438;48.898;2.308;2023-05-07T14:46:36;11.53;;;7.27;;
66581;SDS011;53438;48.898;2.308;2023-05-07T14:49:02;11.53;;;6.97;;
66581;SDS011;53438;48.898;2.308;2023-05-07T14:51:27;9.00;;;4.80;;
66581;SDS011;53438;48.898;2.308;2023-05-07T14:53:53;6.75;;;4.13;;
66581;SDS011;53438;48.898;2.308;2023-05-07T14:56:19;9.43;;;5.70;;
66581;SDS011;53438;48.898;2.308;2023-05-07T14:58:46;18.80;;;10.05;;
66581;SDS011;53438;48.898;2.308;2023-05-07T15:01:13;14.93;;;6.57;;
66581;SDS011;53438;48.898;2.308;2023-05-07T15:03:38;6.13;;;2.70;;
66581;SDS011;53438;48.898;2.308;2023-05-07T15:06:04;7.67;;;2.60;;
66581;SDS011;53438;48.898;2.308;2023-05-07T15:08:29;5.13;;;2.50;;
66581;SDS011;53438;48.898;2.308;2023-05-07T15:10:55;4.17;;;1.73;;
66581;SDS011;53438;48.898;2.308;2023-05-07T15:13:21;4.38;;;1.85;;
66581;SDS011;53438;48.898;2.308;2023-05-07T15:15:46;5.33;;;1.80;;
66581;SDS011;53438;48.898;2.308;2023-05-07T15:18:12;3.87;;;1.63;;
66581;SDS011;53438;48.898;2.308;2023-05-07T15:20:37;4.13;;;1.40;;
66581;SDS011;53438;48.898;2.308;2023-05-07T15:23:02;3.13;;;1.60;;
66581;SDS011;53438;48.898;2.308;2023-05-07T15:25:30;5.72;;;1.88;;
66581;SDS011;53438;48.898;2.308;2023-05-07T15:27:57;4.97;;;1.50;;
66581;SDS011;53438;48.898;2.308;2023-05-07T15:30:23;4.73;;;1.40;;
66581;SDS011;53438;48.898;2.308;2023-05-07T15:32:48;2.30;;;1.37;;
66581;SDS011;53438;48.898;2.308;2023-05-07T15:35:13;3.37;;;1.80;;
66581;SDS011;53438;48.898;2.308;2023-05-07T15:37:39;8.63;;;2.58;;
66581;SDS011;53438;48.898;2.308;2023-05-07T15:40:05;7.97;;;2.20;;
66581;SDS011;53438;48.898;2.308;2023-05-07T15:42:32;4.35;;;1.75;;
66581;SDS011;53438;48.898;2.308;2023-05-07T15:44:58;7.93;;;1.50;;
66581;SDS011;53438;48.898;2.308;2023-05-07T15:47:25;3.53;;;1.48;;
66581;SDS011;53438;48.898;2.308;2023-05-07T15:49:50;2.67;;;1.38;;
66581;SDS011;53438;48.898;2.308;2023-05-07T15:52:16;11.40;;;2.50;;
66581;SDS011;53438;48.898;2.308;2023-05-07T15:54:42;12.93;;;3.00;;
66581;SDS011;53438;48.898;2.308;2023-05-07T15:57:07;6.10;;;2.27;;
66581;SDS011;53438;48.898;2.308;2023-05-07T15:59:34;11.40;;;3.10;;
66581;SDS011;53438;48.898;2.308;2023-05-07T16:02:00;23.52;;;4.70;;
66581;SDS011;53438;48.898;2.308;2023-05-07T16:04:25;18.85;;;3.53;;
66581;SDS011;53438;48.898;2.308;2023-05-07T16:06:52;26.07;;;9.07;;
66581;SDS011;53438;48.898;2.308;2023-05-07T16:09:19;19.33;;;4.60;;
66581;SDS011;53438;48.898;2.308;2023-05-07T16:11:44;13.30;;;4.15;;
66581;SDS011;53438;48.898;2.308;2023-05-07T16:14:10;6.27;;;2.10;;
66581;SDS011;53438;48.898;2.308;2023-05-07T16:16:35;3.73;;;1.17;;
66581;SDS011;53438;48.898;2.308;2023-05-07T16:19:03;5.85;;;1.83;;
66581;SDS011;53438;48.898;2.308;2023-05-07T16:21:28;5.67;;;2.50;;
66581;SDS011;53438;48.898;2.308;2023-05-07T16:23:54;5.57;;;2.20;;
66581;SDS011;53438;48.898;2.308;2023-05-07T16:26:20;4.90;;;3.20;;
66581;SDS011;53438;48.898;2.308;2023-05-07T16:28:45;26.80;;;5.28;;
66581;SDS011;53438;48.898;2.308;2023-05-07T16:31:11;27.47;;;5.17;;
66581;SDS011;53438;48.898;2.308;2023-05-07T16:33:36;13.17;;;3.80;;
66581;SDS011;53438;48.898;2.308;2023-05-07T16:36:01;18.50;;;4.00;;
66581;SDS011;53438;48.898;2.308;2023-05-07T16:38:27;4.10;;;1.63;;
66581;SDS011;53438;48.898;2.308;2023-05-07T16:40:56;5.28;;;2.00;;
66581;SDS011;53438;48.898;2.308;2023-05-07T16:43:22;3.88;;;1.70;;
66581;SDS011;53438;48.898;2.308;2023-05-07T16:45:47;6.70;;;2.50;;
66581;SDS011;53438;48.898;2.308;2023-05-07T16:48:13;5.47;;;1.87;;
66581;SDS011;53438;48.898;2.308;2023-05-07T16:50:38;4.87;;;1.70;;
66581;SDS011;53438;48.898;2.308;2023-05-07T16:53:04;4.10;;;1.53;;
66581;SDS011;53438;48.898;2.308;2023-05-07T16:55:31;3.90;;;1.73;;
66581;SDS011;53438;48.898;2.308;2023-05-07T16:58:02;4.18;;;1.35;;
66581;SDS011;53438;48.898;2.308;2023-05-07T17:00:27;1.67;;;1.00;;
66581;SDS011;53438;48.898;2.308;2023-05-07T17:02:53;4.97;;;2.87;;
66581;SDS011;53438;48.898;2.308;2023-05-07T17:05:18;5.00;;;1.90;;
66581;SDS011;53438;48.898;2.308;2023-05-07T17:07:44;3.58;;;1.30;;
66581;SDS011;53438;48.898;2.308;2023-05-07T17:10:10;4.15;;;1.30;;
66581;SDS011;53438;48.898;2.308;2023-05-07T17:12:35;2.87;;;1.40;;
66581;SDS011;53438;48.898;2.308;2023-05-07T17:15:01;3.50;;;1.33;;
66581;SDS011;53438;48.898;2.308;2023-05-07T17:17:27;2.92;;;1.77;;
66581;SDS011;53438;48.898;2.308;2023-05-07T17:19:52;3.00;;;1.73;;
66581;SDS011;53438;48.898;2.308;2023-05-07T17:22:18;3.13;;;1.90;;
66581;SDS011;53438;48.898;2.308;2023-05-07T17:24:44;5.90;;;4.03;;
66581;SDS011;53438;48.898;2.308;2023-05-07T17:27:10;6.93;;;4.03;;
66581;SDS011;53438;48.898;2.308;2023-05-07T17:29:35;3.63;;;1.97;;
66581;SDS011;53438;48.898;2.308;2023-05-07T17:32:01;5.53;;;1.87;;
66581;SDS011;53438;48.898;2.308;2023-05-07T17:34:26;3.70;;;1.25;;
66581;SDS011;53438;48.898;2.308;2023-05-07T17:36:52;4.13;;;1.70;;
66581;SDS011;53438;48.898;2.308;2023-05-07T17:39:18;3.70;;;2.22;;
66581;SDS011;53438;48.898;2.308;2023-05-07T17:41:43;5.67;;;3.07;;
66581;SDS011;53438;48.898;2.308;2023-05-07T17:44:10;9.75;;;4.60;;
66581;SDS011;53438;48.898;2.308;2023-05-07T17:46:35;6.90;;;3.80;;
66581;SDS011;53438;48.898;2.308;2023-05-07T17:49:00;3.20;;;2.50;;
66581;SDS011;53438;48.898;2.308;2023-05-07T17:51:26;4.73;;;3.00;;
66581;SDS011;53438;48.898;2.308;2023-05-07T17:53:53;4.18;;;2.40;;
66581;SDS011;53438;48.898;2.308;2023-05-07T17:56:18;3.05;;;1.98;;
66581;SDS011;53438;48.898;2.308;2023-05-07T17:58:44;3.38;;;2.00;;